Time;durP1;ratioP1;P1;durP2;ratioP2;P2;SDS_P1;SDS_P2;PMS_P1;PMS_P2;Temp;Humidity;BMP_temperature;BMP_pressure;BME280_temperature;BME280_humidity;BME280_pressure;Samples;Min_cycle;Max_cycle;Signal;HPM_P1;HPM_P2
2022/07/09 00:03:43;;;;;;;6.25;2.08;;;17.50;99.90;;;;;;12489806;28;20042;-39
2022/07/09 00:09:45;;;;;;;8.02;2.72;;;17.60;99.90;;;;;;12498889;28;21212;-38
2022/07/09 00:15:47;;;;;;;6.22;2.20;;;17.60;99.90;;;;;;12499004;28;20106;-38
2022/07/09 00:21:49;;;;;;;7.15;3.40;;;17.50;99.90;;;;;;12502643;28;20085;-38
2022/07/09 00:27:50;;;;;;;8.80;3.40;;;17.60;99.90;;;;;;12502881;28;20136;-38
2022/07/09 00:33:53;;;;;;;8.18;3.70;;;17.50;99.90;;;;;;12498813;28;20447;-35
2022/07/09 00:39:55;;;;;;;9.07;4.03;;;17.30;99.90;;;;;;12500143;28;20045;-38
2022/07/09 00:45:57;;;;;;;7.95;4.68;;;17.20;99.90;;;;;;12497802;28;20136;-34
2022/07/09 00:52:00;;;;;;;8.73;3.92;;;17.20;99.90;;;;;;12499047;28;20098;-35
2022/07/09 00:58:02;;;;;;;7.95;3.60;;;17.10;99.90;;;;;;12497766;28;20132;-34
2022/07/09 01:04:05;;;;;;;8.15;3.95;;;17.10;99.90;;;;;;12487325;28;20136;-34
2022/07/09 01:10:07;;;;;;;6.72;3.20;;;17.10;99.90;;;;;;12497546;28;20125;-34
2022/07/09 01:16:15;;;;;;;8.43;3.20;;;17.10;99.90;;;;;;12451328;28;20099;-38
2022/07/09 01:22:21;;;;;;;8.40;3.47;;;17.20;99.90;;;;;;12471861;28;20045;-38
2022/07/09 01:28:22;;;;;;;13.43;3.80;;;17.20;99.90;;;;;;12497207;28;20132;-35
2022/07/09 01:34:24;;;;;;;13.23;4.30;;;17.10;99.90;;;;;;12496445;28;20180;-38
2022/07/09 01:40:26;;;;;;;9.38;4.18;;;17.10;99.90;;;;;;12496871;28;20056;-38
2022/07/09 01:46:28;;;;;;;11.90;5.00;;;17.10;99.90;;;;;;12496178;28;20528;-34
2022/07/09 01:52:30;;;;;;;9.15;5.00;;;17.00;99.90;;;;;;12497252;28;20052;-38
2022/07/09 01:58:32;;;;;;;9.20;5.18;;;17.00;99.90;;;;;;12495901;28;20560;-34
2022/07/09 02:04:35;;;;;;;13.15;5.00;;;17.00;99.90;;;;;;12495539;28;20052;-38
2022/07/09 02:10:37;;;;;;;9.50;5.22;;;17.00;99.90;;;;;;12501506;28;20179;-38
2022/07/09 02:16:38;;;;;;;15.02;5.57;;;17.00;99.90;;;;;;12497661;28;20106;-38
2022/07/09 02:22:40;;;;;;;11.48;5.32;;;17.10;99.90;;;;;;12489859;28;20140;-34
2022/07/09 02:28:42;;;;;;;15.02;4.93;;;17.00;99.90;;;;;;12499880;28;20045;-38
2022/07/09 02:34:44;;;;;;;13.05;5.25;;;17.00;99.90;;;;;;12494317;28;20095;-34
2022/07/09 02:40:46;;;;;;;15.07;5.20;;;17.00;99.90;;;;;;12494028;28;20041;-34
2022/07/09 02:46:48;;;;;;;14.02;5.35;;;16.90;99.90;;;;;;12500094;28;20542;-38
2022/07/09 02:52:51;;;;;;;19.58;6.30;;;17.00;99.90;;;;;;12491059;28;20045;-38
2022/07/09 02:58:53;;;;;;;11.20;5.57;;;16.90;99.90;;;;;;12491833;28;20179;-34
2022/07/09 03:04:55;;;;;;;12.82;5.97;;;17.00;99.90;;;;;;12490591;28;20418;-34
2022/07/09 03:10:57;;;;;;;18.58;6.63;;;17.10;99.90;;;;;;12484517;28;20053;-38
2022/07/09 03:16:59;;;;;;;9.77;5.00;;;17.00;99.90;;;;;;12490262;28;20111;-38
2022/07/09 03:23:01;;;;;;;14.18;6.78;;;17.00;99.90;;;;;;12491425;28;20080;-38
2022/07/09 03:29:03;;;;;;;16.63;7.15;;;16.80;99.90;;;;;;12490749;28;20187;-35
2022/07/09 03:35:05;;;;;;;15.65;7.65;;;16.90;99.90;;;;;;12464600;28;20046;-34
2022/07/09 03:41:07;;;;;;;14.40;7.20;;;16.80;99.90;;;;;;12490868;28;20428;-40
2022/07/09 03:47:09;;;;;;;14.65;6.15;;;16.70;99.90;;;;;;12500720;28;20555;-35
2022/07/09 03:53:11;;;;;;;13.25;6.35;;;16.60;99.90;;;;;;12498442;28;20049;-34
2022/07/09 03:59:13;;;;;;;12.07;7.38;;;16.70;99.90;;;;;;12498579;28;20482;-34
2022/07/09 04:05:14;;;;;;;16.67;6.97;;;16.90;99.90;;;;;;12502005;28;20090;-34
2022/07/09 04:11:16;;;;;;;8.80;5.72;;;16.80;99.90;;;;;;12480094;28;20470;-34
2022/07/09 04:17:18;;;;;;;10.32;5.78;;;16.80;99.90;;;;;;12498295;28;20128;-38
2022/07/09 04:23:21;;;;;;;14.60;7.18;;;16.70;99.90;;;;;;12502578;28;20068;-34
2022/07/09 04:29:23;;;;;;;15.82;7.30;;;16.70;99.90;;;;;;12491396;28;20057;-34
2022/07/09 04:35:28;;;;;;;12.63;6.10;;;16.70;99.90;;;;;;12492507;28;20045;-39
2022/07/09 04:41:30;;;;;;;18.25;6.50;;;16.70;99.90;;;;;;12496570;28;20073;-38
2022/07/09 04:47:31;;;;;;;14.68;7.18;;;16.70;99.90;;;;;;12495559;28;20045;-39
2022/07/09 04:53:33;;;;;;;17.25;9.80;;;16.60;99.90;;;;;;12494273;28;20459;-34
2022/07/09 04:59:35;;;;;;;16.13;8.65;;;16.60;99.90;;;;;;12493672;28;20160;-35
2022/07/09 05:05:37;;;;;;;15.73;9.65;;;16.70;99.90;;;;;;12485913;28;20069;-38
2022/07/09 05:11:50;;;;;;;19.50;10.97;;;16.60;99.90;;;;;;12493890;28;20076;-34
2022/07/09 05:17:52;;;;;;;20.08;10.68;;;16.60;99.90;;;;;;12494317;28;20079;-38
2022/07/09 05:23:54;;;;;;;19.13;12.23;;;16.60;99.90;;;;;;12488756;28;20082;-34
2022/07/09 05:29:56;;;;;;;18.73;11.85;;;16.60;99.90;;;;;;12493552;28;20445;-38
2022/07/09 05:35:58;;;;;;;24.27;13.05;;;16.50;99.90;;;;;;12491325;28;20042;-34
2022/07/09 05:42:00;;;;;;;24.25;12.98;;;16.60;99.90;;;;;;12490513;28;20140;-35
2022/07/09 05:48:02;;;;;;;19.52;12.68;;;16.60;99.90;;;;;;12487524;28;20148;-38
2022/07/09 05:54:04;;;;;;;23.08;13.07;;;16.60;99.90;;;;;;12485761;28;20038;-34
2022/07/09 06:00:07;;;;;;;26.27;13.52;;;16.70;99.90;;;;;;12490769;28;20098;-34
2022/07/09 06:06:09;;;;;;;16.93;11.20;;;16.70;99.90;;;;;;12483326;28;20049;-38
2022/07/09 06:12:11;;;;;;;20.25;11.55;;;16.70;99.90;;;;;;12491372;28;20308;-38
2022/07/09 06:18:13;;;;;;;22.70;11.90;;;16.70;99.90;;;;;;12494848;28;20046;-38
2022/07/09 06:24:15;;;;;;;20.08;11.40;;;16.70;99.90;;;;;;12493859;28;20532;-38
2022/07/09 06:30:18;;;;;;;13.70;9.63;;;16.70;99.90;;;;;;12494973;28;20091;-35
2022/07/09 06:36:20;;;;;;;12.52;9.60;;;16.80;99.90;;;;;;12489654;28;20432;-39
2022/07/09 06:42:23;;;;;;;11.75;7.55;;;16.80;99.90;;;;;;12488794;28;20401;-38
2022/07/09 06:48:25;;;;;;;13.05;8.18;;;16.90;99.90;;;;;;12493235;28;20041;-38
2022/07/09 06:54:26;;;;;;;14.18;8.60;;;16.90;99.90;;;;;;12494607;28;20041;-35
2022/07/09 07:00:28;;;;;;;11.98;8.43;;;17.00;99.90;;;;;;12490927;28;20056;-34
2022/07/09 07:06:30;;;;;;;12.45;6.05;;;17.10;99.90;;;;;;12493429;28;20072;-35
2022/07/09 07:12:32;;;;;;;11.32;6.20;;;17.20;99.90;;;;;;12497829;28;20053;-34
2022/07/09 07:18:34;;;;;;;10.60;6.43;;;17.30;99.90;;;;;;12482638;28;20107;-38
2022/07/09 07:24:36;;;;;;;11.80;5.90;;;17.20;99.90;;;;;;12490397;28;20124;-39
2022/07/09 07:30:38;;;;;;;9.70;5.72;;;17.40;99.90;;;;;;12498253;28;20111;-38
2022/07/09 07:36:40;;;;;;;9.38;5.45;;;17.60;99.90;;;;;;12490316;28;20447;-34
2022/07/09 07:42:41;;;;;;;8.00;5.13;;;17.80;99.90;;;;;;12491591;28;20083;-34
2022/07/09 07:48:43;;;;;;;8.05;4.20;;;17.70;99.90;;;;;;12492340;28;20106;-34
2022/07/09 07:54:45;;;;;;;6.25;3.97;;;17.90;99.90;;;;;;12489792;28;20402;-34
2022/07/09 08:00:47;;;;;;;6.90;4.40;;;18.00;99.90;;;;;;12491569;28;20046;-35
2022/07/09 08:06:48;;;;;;;6.72;4.00;;;17.80;99.90;;;;;;12495016;28;20049;-35
2022/07/09 08:12:50;;;;;;;7.28;3.35;;;17.90;99.90;;;;;;12490954;28;20049;-35
2022/07/09 08:18:52;;;;;;;6.68;3.38;;;18.10;99.90;;;;;;12490287;28;20058;-36
2022/07/09 08:24:54;;;;;;;7.63;2.90;;;18.10;99.90;;;;;;12490154;28;20053;-35
2022/07/09 08:30:55;;;;;;;4.00;2.30;;;18.20;99.90;;;;;;12501634;28;20055;-38
2022/07/09 08:36:57;;;;;;;7.07;2.97;;;18.20;99.90;;;;;;12499374;28;20110;-40
2022/07/09 08:43:03;;;;;;;4.35;2.33;;;18.20;99.90;;;;;;12498946;28;20139;-35
2022/07/09 08:49:06;;;;;;;3.17;2.00;;;18.30;99.90;;;;;;12499668;28;20417;-35
2022/07/09 08:55:09;;;;;;;3.75;2.38;;;18.30;99.90;;;;;;12485692;28;20157;-35
2022/07/09 09:01:14;;;;;;;5.23;2.60;;;18.30;99.90;;;;;;12498802;28;20037;-34
2022/07/09 09:07:18;;;;;;;3.35;2.00;;;18.20;99.90;;;;;;12494436;28;20477;-35
2022/07/09 09:13:20;;;;;;;4.00;1.98;;;18.20;99.90;;;;;;12497185;28;20076;-39
2022/07/09 09:19:22;;;;;;;2.80;1.50;;;18.20;99.90;;;;;;12496489;28;20054;-35
2022/07/09 09:25:24;;;;;;;5.13;1.90;;;18.40;99.90;;;;;;12496850;28;20136;-39
2022/07/09 09:31:31;;;;;;;3.28;1.73;;;18.40;99.90;;;;;;12494260;28;20409;-39
2022/07/09 09:37:33;;;;;;;3.17;1.80;;;18.50;99.90;;;;;;12495916;28;20060;-38
2022/07/09 09:43:36;;;;;;;4.05;1.75;;;18.50;99.90;;;;;;12493620;28;20041;-39
2022/07/09 09:49:41;;;;;;;7.35;1.90;;;18.50;99.90;;;;;;12496859;28;20057;-35
2022/07/09 09:55:44;;;;;;;5.00;2.10;;;18.50;99.90;;;;;;12493694;28;20049;-39
2022/07/09 10:01:46;;;;;;;5.03;1.60;;;18.60;99.90;;;;;;12495985;28;20045;-39
2022/07/09 10:07:48;;;;;;;5.05;1.65;;;18.70;99.90;;;;;;12493300;28;20432;-34
2022/07/09 10:13:55;;;;;;;3.88;1.77;;;18.80;99.90;;;;;;12495331;28;20169;-39
2022/07/09 10:20:06;;;;;;;3.20;1.63;;;19.00;99.90;;;;;;12498218;28;20054;-35
2022/07/09 10:26:08;;;;;;;4.43;1.50;;;19.10;99.90;;;;;;12493915;28;20506;-35
2022/07/09 10:32:31;;;;;;;3.20;1.63;;;19.20;99.90;;;;;;12492581;28;20045;-35
2022/07/09 10:38:38;;;;;;;5.37;2.03;;;19.20;99.90;;;;;;12491303;28;20511;-36
2022/07/09 10:44:41;;;;;;;2.75;1.70;;;19.70;99.90;;;;;;12491713;28;20053;-39
2022/07/09 10:50:44;;;;;;;2.85;1.30;;;19.80;99.90;;;;;;12492035;28;20413;-35
2022/07/09 10:56:47;;;;;;;3.42;1.48;;;20.10;99.90;;;;;;12487434;28;20477;-35
2022/07/09 11:03:02;;;;;;;2.28;1.15;;;20.60;99.90;;;;;;12492648;28;20462;-35
2022/07/09 11:09:14;;;;;;;1.75;1.15;;;20.50;99.90;;;;;;12491064;28;20125;-35
2022/07/09 11:15:17;;;;;;;2.47;0.93;;;20.60;99.90;;;;;;12491197;28;20045;-39
2022/07/09 11:21:27;;;;;;;2.13;0.95;;;20.90;99.90;;;;;;12478831;28;20069;-35
2022/07/09 11:27:29;;;;;;;1.73;0.90;;;20.80;99.90;;;;;;12491777;28;20053;-35
2022/07/09 11:39:52;;;;;;;1.73;0.80;;;20.50;99.90;;;;;;12489497;28;20124;-35
2022/07/09 11:45:55;;;;;;;3.17;1.55;;;20.10;99.90;;;;;;12489591;28;20183;-35
2022/07/09 11:51:58;;;;;;;3.08;1.00;;;20.30;99.90;;;;;;12491146;28;20056;-35
2022/07/09 11:58:06;;;;;;;1.97;0.80;;;20.80;99.90;;;;;;12490984;28;20045;-41
2022/07/09 12:04:19;;;;;;;2.75;1.00;;;20.60;99.90;;;;;;12493782;28;20140;-39
2022/07/09 12:10:28;;;;;;;1.90;0.80;;;20.20;99.90;;;;;;12501579;28;20512;-39
2022/07/09 12:16:30;;;;;;;1.67;1.00;;;20.00;99.90;;;;;;12496409;28;20076;-35
2022/07/09 12:22:32;;;;;;;1.25;0.90;;;19.80;99.90;;;;;;12500921;28;20045;-35
2022/07/09 12:28:34;;;;;;;1.40;0.68;;;20.40;99.90;;;;;;12507414;28;20131;-40
2022/07/09 12:34:36;;;;;;;2.67;0.80;;;21.00;99.90;;;;;;12498136;28;20114;-35
2022/07/09 12:40:40;;;;;;;2.38;0.90;;;21.30;99.90;;;;;;12498015;28;20406;-35
2022/07/09 12:46:42;;;;;;;3.90;0.73;;;21.60;99.90;;;;;;12488711;28;20126;-39
2022/07/09 12:52:45;;;;;;;3.05;0.70;;;21.90;99.90;;;;;;12498599;28;20067;-35
2022/07/09 12:58:47;;;;;;;1.27;0.63;;;22.20;99.90;;;;;;12474194;28;20116;-35
2022/07/09 13:04:49;;;;;;;3.17;0.77;;;22.40;99.90;;;;;;12497517;28;20299;-35
2022/07/09 13:10:50;;;;;;;0.80;0.60;;;22.60;99.90;;;;;;12504258;28;20041;-35
2022/07/09 13:16:52;;;;;;;1.42;0.68;;;22.50;99.90;;;;;;12496510;28;20054;-36
2022/07/09 13:23:14;;;;;;;1.17;0.60;;;22.20;99.90;;;;;;12496904;28;20104;-39
2022/07/09 13:29:16;;;;;;;2.08;0.85;;;21.60;99.90;;;;;;12496929;28;20487;-40
2022/07/09 13:35:17;;;;;;;2.00;0.85;;;21.20;99.90;;;;;;12493941;28;20049;-35
2022/07/09 13:41:19;;;;;;;1.63;0.73;;;21.10;99.90;;;;;;12480236;28;20053;-39
2022/07/09 13:47:21;;;;;;;2.03;0.98;;;20.90;99.90;;;;;;12495561;28;20056;-40
2022/07/09 13:53:23;;;;;;;1.85;1.00;;;20.50;99.90;;;;;;12492523;28;20049;-38
2022/07/09 13:59:25;;;;;;;4.15;1.00;;;20.30;99.90;;;;;;12495285;28;20072;-39
2022/07/09 14:05:26;;;;;;;2.20;0.80;;;20.30;99.90;;;;;;12493187;28;20073;-34
2022/07/09 14:11:28;;;;;;;3.50;1.60;;;20.50;99.90;;;;;;12483494;28;20049;-39
2022/07/09 14:17:30;;;;;;;6.55;1.83;;;20.50;99.90;;;;;;12493642;28;20132;-35
2022/07/09 14:23:32;;;;;;;2.00;0.98;;;20.80;99.90;;;;;;12492505;28;20074;-39
2022/07/09 14:29:34;;;;;;;3.17;1.10;;;21.30;99.90;;;;;;12477782;28;20148;-35
2022/07/09 14:35:35;;;;;;;2.42;0.80;;;21.60;99.90;;;;;;12484469;28;20179;-35
2022/07/09 14:41:37;;;;;;;7.85;1.10;;;21.60;99.90;;;;;;12486694;28;20545;-40
2022/07/09 14:47:39;;;;;;;1.92;0.80;;;21.30;99.90;;;;;;12493651;28;20041;-35
2022/07/09 14:53:41;;;;;;;4.32;0.90;;;21.40;99.90;;;;;;12491032;28;20179;-39
2022/07/09 14:59:45;;;;;;;8.40;1.30;;;21.50;99.90;;;;;;12489991;28;20052;-39
2022/07/09 15:05:46;;;;;;;4.00;1.08;;;21.30;99.90;;;;;;12490994;28;20404;-40
2022/07/09 15:11:48;;;;;;;3.65;0.90;;;21.10;99.90;;;;;;12491406;28;20133;-39
2022/07/09 15:17:51;;;;;;;5.55;1.00;;;21.30;99.90;;;;;;12490148;28;20148;-38
2022/07/09 15:23:53;;;;;;;4.90;1.10;;;21.20;99.90;;;;;;12490327;28;20041;-35
2022/07/09 15:29:55;;;;;;;6.07;1.00;;;20.70;99.90;;;;;;12488101;28;20103;-35
2022/07/09 15:35:57;;;;;;;5.20;1.33;;;20.70;99.90;;;;;;12485037;28;20052;-35
2022/07/09 15:41:59;;;;;;;5.95;1.10;;;20.40;99.90;;;;;;12465380;28;20045;-41
2022/07/09 15:48:01;;;;;;;4.82;1.73;;;20.20;99.90;;;;;;12486578;28;20049;-36
2022/07/09 15:54:03;;;;;;;4.25;1.02;;;20.10;99.90;;;;;;12486048;28;20204;-39
2022/07/09 16:00:09;;;;;;;5.53;1.10;;;20.00;99.90;;;;;;12481441;28;20054;-40
2022/07/09 16:06:11;;;;;;;5.15;1.00;;;19.90;99.90;;;;;;12445891;28;20049;-35
2022/07/09 16:18:36;;;;;;;4.82;1.27;;;20.20;99.90;;;;;;12491396;28;20103;-38
2022/07/09 16:24:39;;;;;;;8.70;1.07;;;20.10;99.90;;;;;;12490340;28;20087;-35
2022/07/09 16:30:41;;;;;;;3.60;1.10;;;20.20;99.90;;;;;;12494400;28;20442;-35
2022/07/09 16:36:43;;;;;;;5.87;1.07;;;20.10;99.90;;;;;;12491801;28;20041;-39
2022/07/09 16:42:45;;;;;;;4.95;0.90;;;20.10;99.90;;;;;;12490671;28;20116;-35
2022/07/09 16:48:47;;;;;;;5.03;1.20;;;20.20;99.90;;;;;;12492899;28;20080;-39
2022/07/09 16:54:50;;;;;;;4.18;1.23;;;20.10;99.90;;;;;;12498468;28;20042;-35
2022/07/09 17:00:52;;;;;;;6.07;1.03;;;20.10;99.90;;;;;;12500319;28;20053;-40
2022/07/09 17:06:54;;;;;;;6.38;1.20;;;20.00;99.90;;;;;;12501812;28;20061;-38
2022/07/09 17:12:56;;;;;;;4.47;0.98;;;19.80;99.90;;;;;;12499930;28;20557;-39
2022/07/09 17:18:58;;;;;;;3.28;0.98;;;19.70;99.90;;;;;;12499120;28;20103;-39
2022/07/09 17:25:01;;;;;;;4.07;0.90;;;19.30;99.90;;;;;;12500261;28;20056;-35
2022/07/09 17:31:06;;;;;;;6.55;0.95;;;19.00;99.90;;;;;;12507376;28;20272;-38
2022/07/09 17:37:08;;;;;;;4.35;0.80;;;18.70;99.90;;;;;;12502093;28;20061;-35
2022/07/09 17:43:10;;;;;;;3.87;0.80;;;18.50;99.90;;;;;;12498919;28;20049;-35
2022/07/09 17:49:12;;;;;;;4.60;0.90;;;18.20;99.90;;;;;;12497604;28;20053;-38
2022/07/09 17:55:20;;;;;;;3.50;0.90;;;18.10;99.90;;;;;;12496697;28;20420;-41
2022/07/09 18:01:22;;;;;;;3.45;0.70;;;18.10;99.90;;;;;;12497218;28;20049;-35
2022/07/09 18:07:25;;;;;;;4.25;1.00;;;17.90;99.90;;;;;;12498552;28;20072;-40
2022/07/09 18:13:27;;;;;;;3.75;0.93;;;17.90;99.90;;;;;;12495778;28;20401;-40
2022/07/09 18:19:29;;;;;;;4.10;0.70;;;17.80;99.90;;;;;;12496644;28;20056;-35
2022/07/09 18:25:31;;;;;;;4.13;0.98;;;17.60;99.90;;;;;;12495036;28;20111;-36
2022/07/09 18:31:35;;;;;;;4.32;0.90;;;17.70;99.90;;;;;;12506909;28;20084;-36
2022/07/09 18:37:38;;;;;;;3.13;0.68;;;17.70;99.90;;;;;;12494129;28;20060;-35
2022/07/09 18:43:40;;;;;;;3.92;0.90;;;17.70;99.90;;;;;;12493611;28;20067;-38
2022/07/09 18:49:42;;;;;;;3.15;0.75;;;17.40;99.90;;;;;;12492992;28;20459;-38
2022/07/09 18:55:44;;;;;;;2.85;0.85;;;17.30;99.90;;;;;;12494008;28;20045;-35
2022/07/09 19:01:46;;;;;;;5.50;0.80;;;17.10;99.90;;;;;;12493446;28;20111;-38
2022/07/09 19:07:48;;;;;;;4.40;0.80;;;17.00;99.90;;;;;;12495466;28;20049;-38
2022/07/09 19:13:51;;;;;;;3.28;1.00;;;16.90;99.90;;;;;;12478603;28;20048;-36
2022/07/09 19:19:53;;;;;;;3.13;0.85;;;16.80;99.90;;;;;;12492323;28;20417;-35
2022/07/09 19:25:55;;;;;;;6.72;1.02;;;16.60;99.90;;;;;;12491704;28;20072;-38
2022/07/09 19:38:18;;;;;;;3.55;0.90;;;16.80;99.90;;;;;;12490623;28;20125;-34
2022/07/09 19:44:23;;;;;;;4.53;0.90;;;16.60;99.90;;;;;;12489536;28;20046;-38
2022/07/09 19:50:25;;;;;;;4.13;0.80;;;16.50;99.90;;;;;;12491399;28;20179;-37
2022/07/09 19:56:27;;;;;;;5.43;1.27;;;16.30;99.90;;;;;;12492172;28;20049;-38
2022/07/09 20:02:33;;;;;;;7.50;1.58;;;16.20;99.90;;;;;;12489025;28;20489;-38
2022/07/09 20:08:35;;;;;;;5.38;1.17;;;16.10;99.90;;;;;;12487904;28;20156;-35
2022/07/09 20:14:38;;;;;;;4.40;0.93;;;16.10;99.90;;;;;;12488780;28;20447;-38
2022/07/09 20:20:41;;;;;;;9.20;1.20;;;16.00;99.90;;;;;;12496282;28;20106;-35
2022/07/09 20:26:42;;;;;;;6.50;1.10;;;15.90;99.90;;;;;;12496546;28;20098;-34
2022/07/09 20:32:44;;;;;;;6.43;1.10;;;15.80;99.90;;;;;;12504360;28;20053;-38
2022/07/09 20:38:46;;;;;;;3.97;1.10;;;15.80;99.90;;;;;;12499350;28;20037;-34
2022/07/09 20:44:48;;;;;;;3.22;0.80;;;15.70;99.90;;;;;;12498992;28;20087;-34
2022/07/09 20:50:49;;;;;;;2.33;0.88;;;15.80;99.90;;;;;;12498745;28;20099;-39
2022/07/09 20:56:51;;;;;;;2.75;0.70;;;15.80;99.90;;;;;;12494196;28;20128;-38
2022/07/09 21:02:54;;;;;;;5.82;0.80;;;16.00;99.90;;;;;;12499256;28;20041;-38
2022/07/09 21:08:56;;;;;;;7.30;1.00;;;15.90;99.90;;;;;;12502108;28;20136;-34
2022/07/09 21:14:57;;;;;;;3.47;0.70;;;15.90;99.90;;;;;;12496501;28;20102;-34
2022/07/09 21:20:59;;;;;;;4.85;0.80;;;15.60;99.90;;;;;;12499008;28;20048;-39
2022/07/09 21:27:01;;;;;;;5.07;0.93;;;15.50;99.90;;;;;;12492777;28;20045;-35
2022/07/09 21:33:03;;;;;;;7.45;1.63;;;15.60;99.90;;;;;;12500058;28;20053;-38
2022/07/09 21:39:05;;;;;;;4.95;0.82;;;15.70;99.90;;;;;;12496776;28;20183;-38
2022/07/09 21:45:08;;;;;;;3.25;0.70;;;15.50;99.90;;;;;;12496525;28;20041;-34
2022/07/09 21:51:10;;;;;;;5.57;0.88;;;15.50;99.90;;;;;;12495955;28;20179;-38
2022/07/09 21:57:11;;;;;;;4.18;0.73;;;15.30;99.90;;;;;;12497796;28;20053;-38
2022/07/09 22:03:15;;;;;;;6.18;0.70;;;15.10;99.90;;;;;;12494573;28;20042;-38
2022/07/09 22:09:17;;;;;;;3.40;0.60;;;15.30;99.90;;;;;;12498875;28;20111;-38
2022/07/09 22:15:18;;;;;;;5.60;0.90;;;15.40;99.90;;;;;;12492976;28;20057;-36
2022/07/09 22:21:21;;;;;;;6.07;0.88;;;15.30;99.90;;;;;;12495839;28;20416;-35
2022/07/09 22:27:23;;;;;;;4.05;0.75;;;15.10;99.90;;;;;;12495385;28;20083;-35
2022/07/09 22:33:25;;;;;;;5.47;0.77;;;15.00;99.90;;;;;;12497729;28;20588;-38
2022/07/09 22:39:29;;;;;;;4.05;0.80;;;14.90;99.90;;;;;;12494459;28;20080;-35
2022/07/09 22:45:31;;;;;;;;;;;15.00;99.90;;;;;;12492933;28;20270;-34
2022/07/09 22:51:32;;;;;;;6.50;1.20;;;14.80;99.90;;;;;;12493361;28;19970;-38
2022/07/09 22:57:34;;;;;;;5.47;1.17;;;14.90;99.90;;;;;;12486256;28;20072;-39
2022/07/09 23:03:36;;;;;;;6.05;1.10;;;14.90;99.90;;;;;;12481248;28;20083;-38
2022/07/09 23:09:38;;;;;;;7.90;1.20;;;14.90;99.90;;;;;;12494638;28;20486;-38
2022/07/09 23:15:40;;;;;;;5.47;0.80;;;14.90;99.90;;;;;;12491428;28;20045;-35
2022/07/09 23:21:43;;;;;;;5.88;1.10;;;14.90;99.90;;;;;;12504872;28;20046;-38
2022/07/09 23:27:44;;;;;;;6.10;1.10;;;14.90;99.90;;;;;;12492596;28;20545;-38
2022/07/09 23:33:47;;;;;;;8.02;1.00;;;14.90;99.90;;;;;;12490770;28;20383;-40
2022/07/09 23:39:49;;;;;;;3.42;0.68;;;14.90;99.90;;;;;;12492111;28;20045;-35
2022/07/09 23:45:51;;;;;;;4.95;0.93;;;14.90;99.90;;;;;;12489670;28;20045;-39
2022/07/09 23:51:53;;;;;;;3.67;0.65;;;15.00;99.90;;;;;;12490254;28;20045;-35
2022/07/09 23:57:59;;;;;;;3.20;1.40;;;14.90;99.90;;;;;;12490751;28;20041;-38
